sensor_id;sensor_type;location;lat;lon;timestamp;P1;durP1;ratioP1;P2;durP2;ratioP2
21894;SDS011;11112;51.270;7.224;2023-02-01T00:00:25;22.50;;;9.32;;
21894;SDS011;11112;51.270;7.224;2023-02-01T00:02:54;27.23;;;9.90;;
21894;SDS011;11112;51.270;7.224;2023-02-01T00:05:22;24.40;;;9.60;;
21894;SDS011;11112;51.270;7.224;2023-02-01T00:07:49;25.80;;;9.05;;
21894;SDS011;11112;51.270;7.224;2023-02-01T00:10:17;26.58;;;8.60;;
21894;SDS011;11112;51.270;7.224;2023-02-01T00:12:46;21.90;;;8.10;;
21894;SDS011;11112;51.270;7.224;2023-02-01T00:15:14;22.98;;;8.18;;
21894;SDS011;11112;51.270;7.224;2023-02-01T00:17:42;21.88;;;8.00;;
21894;SDS011;11112;51.270;7.224;2023-02-01T00:20:12;19.40;;;7.82;;
21894;SDS011;11112;51.270;7.224;2023-02-01T00:22:43;23.77;;;7.97;;
21894;SDS011;11112;51.270;7.224;2023-02-01T00:25:10;24.17;;;8.00;;
21894;SDS011;11112;51.270;7.224;2023-02-01T00:27:38;20.70;;;7.40;;
21894;SDS011;11112;51.270;7.224;2023-02-01T00:30:06;19.73;;;7.10;;
21894;SDS011;11112;51.270;7.224;2023-02-01T00:32:35;18.85;;;6.93;;
21894;SDS011;11112;51.270;7.224;2023-02-01T00:35:03;24.90;;;7.07;;
21894;SDS011;11112;51.270;7.224;2023-02-01T00:37:34;19.98;;;6.35;;
21894;SDS011;11112;51.270;7.224;2023-02-01T00:40:04;21.13;;;6.88;;
21894;SDS011;11112;51.270;7.224;2023-02-01T00:42:34;22.23;;;6.38;;
21894;SDS011;11112;51.270;7.224;2023-02-01T00:45:03;20.17;;;6.18;;
21894;SDS011;11112;51.270;7.224;2023-02-01T00:47:32;24.52;;;6.82;;
21894;SDS011;11112;51.270;7.224;2023-02-01T00:50:03;20.05;;;6.32;;
21894;SDS011;11112;51.270;7.224;2023-02-01T00:52:31;25.52;;;7.93;;
21894;SDS011;11112;51.270;7.224;2023-02-01T00:55:00;21.10;;;7.07;;
21894;SDS011;11112;51.270;7.224;2023-02-01T00:57:27;23.92;;;7.15;;
21894;SDS011;11112;51.270;7.224;2023-02-01T00:59:55;24.88;;;8.13;;
21894;SDS011;11112;51.270;7.224;2023-02-01T01:02:22;22.92;;;7.80;;
21894;SDS011;11112;51.270;7.224;2023-02-01T01:04:53;24.48;;;7.70;;
21894;SDS011;11112;51.270;7.224;2023-02-01T01:07:20;22.88;;;8.00;;
21894;SDS011;11112;51.270;7.224;2023-02-01T01:09:47;21.67;;;8.32;;
21894;SDS011;11112;51.270;7.224;2023-02-01T01:12:16;22.58;;;8.60;;
21894;SDS011;11112;51.270;7.224;2023-02-01T01:14:44;20.90;;;9.38;;
21894;SDS011;11112;51.270;7.224;2023-02-01T01:17:12;30.60;;;10.80;;
21894;SDS011;11112;51.270;7.224;2023-02-01T01:19:39;27.98;;;12.00;;
21894;SDS011;11112;51.270;7.224;2023-02-01T01:22:07;30.63;;;12.60;;
21894;SDS011;11112;51.270;7.224;2023-02-01T01:24:35;30.00;;;12.27;;
21894;SDS011;11112;51.270;7.224;2023-02-01T01:27:03;27.38;;;12.82;;
21894;SDS011;11112;51.270;7.224;2023-02-01T01:29:32;26.42;;;12.30;;
21894;SDS011;11112;51.270;7.224;2023-02-01T01:31:59;29.88;;;12.90;;
21894;SDS011;11112;51.270;7.224;2023-02-01T01:34:27;30.00;;;12.75;;
21894;SDS011;11112;51.270;7.224;2023-02-01T01:36:54;31.40;;;11.73;;
21894;SDS011;11112;51.270;7.224;2023-02-01T01:39:21;28.95;;;10.82;;
21894;SDS011;11112;51.270;7.224;2023-02-01T01:41:49;25.25;;;10.48;;
21894;SDS011;11112;51.270;7.224;2023-02-01T01:47:31;25.10;;;10.13;;
21894;SDS011;11112;51.270;7.224;2023-02-01T01:50:03;27.30;;;9.63;;
21894;SDS011;11112;51.270;7.224;2023-02-01T01:52:35;23.45;;;8.85;;
21894;SDS011;11112;51.270;7.224;2023-02-01T01:55:04;24.88;;;9.25;;
21894;SDS011;11112;51.270;7.224;2023-02-01T01:57:34;24.02;;;9.40;;
21894;SDS011;11112;51.270;7.224;2023-02-01T02:00:07;25.83;;;10.93;;
21894;SDS011;11112;51.270;7.224;2023-02-01T02:02:38;22.10;;;8.25;;
21894;SDS011;11112;51.270;7.224;2023-02-01T02:05:09;22.00;;;7.45;;
21894;SDS011;11112;51.270;7.224;2023-02-01T02:07:39;20.15;;;7.07;;
21894;SDS011;11112;51.270;7.224;2023-02-01T02:10:10;21.38;;;6.95;;
21894;SDS011;11112;51.270;7.224;2023-02-01T02:12:40;24.05;;;6.97;;
21894;SDS011;11112;51.270;7.224;2023-02-01T02:15:11;20.90;;;6.22;;
21894;SDS011;11112;51.270;7.224;2023-02-01T02:17:40;19.08;;;5.70;;
21894;SDS011;11112;51.270;7.224;2023-02-01T02:20:30;24.33;;;6.15;;
21894;SDS011;11112;51.270;7.224;2023-02-01T02:23:37;18.33;;;5.15;;
21894;SDS011;11112;51.270;7.224;2023-02-01T02:30:01;21.93;;;4.83;;
21894;SDS011;11112;51.270;7.224;2023-02-01T02:38:24;20.73;;;4.43;;
21894;SDS011;11112;51.270;7.224;2023-02-01T02:41:03;20.27;;;4.68;;
21894;SDS011;11112;51.270;7.224;2023-02-01T02:44:03;21.15;;;4.53;;
21894;SDS011;11112;51.270;7.224;2023-02-01T02:46:57;23.23;;;4.43;;
21894;SDS011;11112;51.270;7.224;2023-02-01T02:49:52;21.58;;;4.35;;
21894;SDS011;11112;51.270;7.224;2023-02-01T02:52:44;25.20;;;4.03;;
21894;SDS011;11112;51.270;7.224;2023-02-01T02:55:35;20.20;;;3.65;;
21894;SDS011;11112;51.270;7.224;2023-02-01T02:58:05;23.60;;;4.40;;
21894;SDS011;11112;51.270;7.224;2023-02-01T03:00:52;19.67;;;4.20;;
21894;SDS011;11112;51.270;7.224;2023-02-01T03:03:38;19.88;;;3.95;;
21894;SDS011;11112;51.270;7.224;2023-02-01T03:06:25;22.48;;;4.28;;
21894;SDS011;11112;51.270;7.224;2023-02-01T03:08:53;22.42;;;4.15;;
21894;SDS011;11112;51.270;7.224;2023-02-01T03:11:23;20.83;;;3.78;;
21894;SDS011;11112;51.270;7.224;2023-02-01T03:14:15;18.98;;;3.30;;
21894;SDS011;11112;51.270;7.224;2023-02-01T03:16:45;22.70;;;3.88;;
21894;SDS011;11112;51.270;7.224;2023-02-01T03:19:19;21.30;;;3.85;;
21894;SDS011;11112;51.270;7.224;2023-02-01T03:21:53;17.42;;;3.67;;
21894;SDS011;11112;51.270;7.224;2023-02-01T03:24:25;19.45;;;3.80;;
21894;SDS011;11112;51.270;7.224;2023-02-01T03:27:01;20.73;;;3.70;;
21894;SDS011;11112;51.270;7.224;2023-02-01T03:29:34;20.08;;;3.80;;
21894;SDS011;11112;51.270;7.224;2023-02-01T03:32:07;20.88;;;3.60;;
21894;SDS011;11112;51.270;7.224;2023-02-01T03:34:36;19.15;;;3.50;;
21894;SDS011;11112;51.270;7.224;2023-02-01T03:37:06;22.48;;;4.00;;
21894;SDS011;11112;51.270;7.224;2023-02-01T03:39:38;20.38;;;4.07;;
21894;SDS011;11112;51.270;7.224;2023-02-01T03:42:12;18.25;;;4.03;;
21894;SDS011;11112;51.270;7.224;2023-02-01T03:44:46;18.42;;;3.83;;
21894;SDS011;11112;51.270;7.224;2023-02-01T03:47:20;21.08;;;4.18;;
21894;SDS011;11112;51.270;7.224;2023-02-01T03:49:50;20.17;;;3.92;;
21894;SDS011;11112;51.270;7.224;2023-02-01T03:52:25;15.52;;;3.53;;
21894;SDS011;11112;51.270;7.224;2023-02-01T03:54:59;24.45;;;3.80;;
21894;SDS011;11112;51.270;7.224;2023-02-01T03:57:28;18.60;;;3.72;;
21894;SDS011;11112;51.270;7.224;2023-02-01T04:00:03;23.70;;;4.30;;
21894;SDS011;11112;51.270;7.224;2023-02-01T04:02:33;17.23;;;3.50;;
21894;SDS011;11112;51.270;7.224;2023-02-01T04:05:01;18.67;;;3.72;;
21894;SDS011;11112;51.270;7.224;2023-02-01T04:07:31;18.25;;;4.05;;
21894;SDS011;11112;51.270;7.224;2023-02-01T04:09:58;21.77;;;4.10;;
21894;SDS011;11112;51.270;7.224;2023-02-01T04:12:25;23.88;;;3.88;;
21894;SDS011;11112;51.270;7.224;2023-02-01T04:14:54;19.30;;;4.03;;
21894;SDS011;11112;51.270;7.224;2023-02-01T04:17:22;20.45;;;4.05;;
21894;SDS011;11112;51.270;7.224;2023-02-01T04:19:49;19.38;;;3.88;;
21894;SDS011;11112;51.270;7.224;2023-02-01T04:22:16;22.88;;;3.92;;
21894;SDS011;11112;51.270;7.224;2023-02-01T04:24:48;22.70;;;4.13;;
21894;SDS011;11112;51.270;7.224;2023-02-01T04:27:15;23.33;;;4.28;;
21894;SDS011;11112;51.270;7.224;2023-02-01T04:29:43;23.30;;;3.90;;
21894;SDS011;11112;51.270;7.224;2023-02-01T04:32:11;20.63;;;4.18;;
21894;SDS011;11112;51.270;7.224;2023-02-01T04:34:38;21.63;;;4.15;;
21894;SDS011;11112;51.270;7.224;2023-02-01T04:37:05;23.08;;;4.15;;
21894;SDS011;11112;51.270;7.224;2023-02-01T04:39:32;21.27;;;3.97;;
21894;SDS011;11112;51.270;7.224;2023-02-01T04:42:02;24.08;;;3.90;;
21894;SDS011;11112;51.270;7.224;2023-02-01T04:44:29;25.98;;;4.22;;
21894;SDS011;11112;51.270;7.224;2023-02-01T04:46:56;28.13;;;4.65;;
21894;SDS011;11112;51.270;7.224;2023-02-01T04:49:24;22.60;;;4.10;;
21894;SDS011;11112;51.270;7.224;2023-02-01T04:51:52;20.42;;;3.95;;
21894;SDS011;11112;51.270;7.224;2023-02-01T04:54:19;23.58;;;4.53;;
21894;SDS011;11112;51.270;7.224;2023-02-01T04:56:46;23.52;;;3.67;;
21894;SDS011;11112;51.270;7.224;2023-02-01T04:59:15;28.88;;;5.30;;
21894;SDS011;11112;51.270;7.224;2023-02-01T05:01:43;30.00;;;4.63;;
21894;SDS011;11112;51.270;7.224;2023-02-01T05:04:10;23.48;;;4.43;;
21894;SDS011;11112;51.270;7.224;2023-02-01T05:06:37;23.58;;;4.32;;
21894;SDS011;11112;51.270;7.224;2023-02-01T05:09:05;24.35;;;4.10;;
21894;SDS011;11112;51.270;7.224;2023-02-01T05:11:32;26.83;;;4.28;;
21894;SDS011;11112;51.270;7.224;2023-02-01T05:14:17;27.52;;;4.80;;
21894;SDS011;11112;51.270;7.224;2023-02-01T05:16:45;18.70;;;4.45;;
21894;SDS011;11112;51.270;7.224;2023-02-01T05:19:12;22.08;;;4.82;;
21894;SDS011;11112;51.270;7.224;2023-02-01T05:21:40;19.50;;;4.05;;
21894;SDS011;11112;51.270;7.224;2023-02-01T05:24:07;22.40;;;4.65;;
21894;SDS011;11112;51.270;7.224;2023-02-01T05:26:45;24.30;;;4.38;;
21894;SDS011;11112;51.270;7.224;2023-02-01T05:29:15;29.98;;;4.75;;
21894;SDS011;11112;51.270;7.224;2023-02-01T05:31:47;25.15;;;4.47;;
21894;SDS011;11112;51.270;7.224;2023-02-01T05:34:18;20.45;;;4.47;;
21894;SDS011;11112;51.270;7.224;2023-02-01T05:36:45;25.83;;;4.20;;
21894;SDS011;11112;51.270;7.224;2023-02-01T05:39:13;24.17;;;4.18;;
21894;SDS011;11112;51.270;7.224;2023-02-01T05:41:40;25.55;;;4.40;;
21894;SDS011;11112;51.270;7.224;2023-02-01T05:44:08;28.25;;;4.97;;
21894;SDS011;11112;51.270;7.224;2023-02-01T05:46:38;21.20;;;4.47;;
21894;SDS011;11112;51.270;7.224;2023-02-01T05:49:08;23.27;;;4.15;;
21894;SDS011;11112;51.270;7.224;2023-02-01T05:51:35;27.15;;;4.65;;
21894;SDS011;11112;51.270;7.224;2023-02-01T05:54:03;29.33;;;5.03;;
21894;SDS011;11112;51.270;7.224;2023-02-01T05:56:31;22.02;;;4.57;;
21894;SDS011;11112;51.270;7.224;2023-02-01T05:58:58;28.17;;;4.03;;
21894;SDS011;11112;51.270;7.224;2023-02-01T06:01:25;27.13;;;4.50;;
21894;SDS011;11112;51.270;7.224;2023-02-01T06:03:54;26.55;;;4.30;;
21894;SDS011;11112;51.270;7.224;2023-02-01T06:06:21;27.60;;;4.97;;
21894;SDS011;11112;51.270;7.224;2023-02-01T06:08:49;22.40;;;4.57;;
21894;SDS011;11112;51.270;7.224;2023-02-01T06:11:17;25.63;;;4.82;;
21894;SDS011;11112;51.270;7.224;2023-02-01T06:13:44;24.38;;;4.68;;
21894;SDS011;11112;51.270;7.224;2023-02-01T06:16:12;26.40;;;4.60;;
21894;SDS011;11112;51.270;7.224;2023-02-01T06:18:42;24.42;;;4.45;;
21894;SDS011;11112;51.270;7.224;2023-02-01T06:21:11;27.92;;;4.78;;
21894;SDS011;11112;51.270;7.224;2023-02-01T06:23:40;28.58;;;5.20;;
21894;SDS011;11112;51.270;7.224;2023-02-01T06:26:09;29.48;;;4.65;;
21894;SDS011;11112;51.270;7.224;2023-02-01T06:28:37;26.40;;;4.70;;
21894;SDS011;11112;51.270;7.224;2023-02-01T06:31:06;24.58;;;6.10;;
21894;SDS011;11112;51.270;7.224;2023-02-01T06:33:34;27.90;;;4.60;;
21894;SDS011;11112;51.270;7.224;2023-02-01T06:36:03;28.30;;;4.60;;
21894;SDS011;11112;51.270;7.224;2023-02-01T06:38:34;31.77;;;5.20;;
21894;SDS011;11112;51.270;7.224;2023-02-01T06:41:03;27.67;;;4.78;;
21894;SDS011;11112;51.270;7.224;2023-02-01T06:43:33;33.10;;;4.68;;
21894;SDS011;11112;51.270;7.224;2023-02-01T06:46:02;24.00;;;4.78;;
21894;SDS011;11112;51.270;7.224;2023-02-01T06:48:32;23.33;;;4.80;;
21894;SDS011;11112;51.270;7.224;2023-02-01T06:50:59;25.73;;;4.63;;
21894;SDS011;11112;51.270;7.224;2023-02-01T06:53:46;26.35;;;5.05;;
21894;SDS011;11112;51.270;7.224;2023-02-01T06:56:14;25.17;;;4.32;;
21894;SDS011;11112;51.270;7.224;2023-02-01T06:58:41;27.42;;;4.95;;
21894;SDS011;11112;51.270;7.224;2023-02-01T07:01:09;27.52;;;4.25;;
21894;SDS011;11112;51.270;7.224;2023-02-01T07:03:38;28.85;;;4.65;;
21894;SDS011;11112;51.270;7.224;2023-02-01T07:06:06;26.83;;;5.30;;
21894;SDS011;11112;51.270;7.224;2023-02-01T07:09:03;29.50;;;4.70;;
21894;SDS011;11112;51.270;7.224;2023-02-01T07:11:49;36.05;;;4.90;;
21894;SDS011;11112;51.270;7.224;2023-02-01T07:14:17;30.58;;;5.60;;
21894;SDS011;11112;51.270;7.224;2023-02-01T07:16:46;29.00;;;4.88;;
21894;SDS011;11112;51.270;7.224;2023-02-01T07:19:23;23.55;;;4.72;;
21894;SDS011;11112;51.270;7.224;2023-02-01T07:21:50;27.05;;;4.65;;
21894;SDS011;11112;51.270;7.224;2023-02-01T07:24:22;24.20;;;4.32;;
21894;SDS011;11112;51.270;7.224;2023-02-01T07:26:52;23.55;;;5.00;;
21894;SDS011;11112;51.270;7.224;2023-02-01T07:29:19;26.20;;;4.43;;
21894;SDS011;11112;51.270;7.224;2023-02-01T07:31:47;30.17;;;4.72;;
21894;SDS011;11112;51.270;7.224;2023-02-01T07:34:15;24.77;;;5.00;;
21894;SDS011;11112;51.270;7.224;2023-02-01T07:36:49;27.47;;;5.33;;
21894;SDS011;11112;51.270;7.224;2023-02-01T07:39:16;25.80;;;4.75;;
21894;SDS011;11112;51.270;7.224;2023-02-01T07:41:45;26.27;;;4.72;;
21894;SDS011;11112;51.270;7.224;2023-02-01T07:44:15;23.67;;;4.35;;
21894;SDS011;11112;51.270;7.224;2023-02-01T07:46:47;19.10;;;4.40;;
21894;SDS011;11112;51.270;7.224;2023-02-01T07:49:15;27.10;;;4.63;;
21894;SDS011;11112;51.270;7.224;2023-02-01T07:51:42;26.42;;;4.60;;
21894;SDS011;11112;51.270;7.224;2023-02-01T07:54:10;22.48;;;4.38;;
21894;SDS011;11112;51.270;7.224;2023-02-01T07:56:42;23.95;;;5.68;;
21894;SDS011;11112;51.270;7.224;2023-02-01T07:59:15;29.08;;;4.88;;
21894;SDS011;11112;51.270;7.224;2023-02-01T08:01:47;27.52;;;5.43;;
21894;SDS011;11112;51.270;7.224;2023-02-01T08:04:14;32.92;;;5.00;;
21894;SDS011;11112;51.270;7.224;2023-02-01T08:06:41;33.65;;;5.40;;
21894;SDS011;11112;51.270;7.224;2023-02-01T08:09:09;27.02;;;4.35;;
21894;SDS011;11112;51.270;7.224;2023-02-01T08:11:37;23.38;;;5.00;;
21894;SDS011;11112;51.270;7.224;2023-02-01T08:14:05;24.63;;;4.68;;
21894;SDS011;11112;51.270;7.224;2023-02-01T08:16:34;25.20;;;4.18;;
21894;SDS011;11112;51.270;7.224;2023-02-01T08:19:04;24.75;;;5.00;;
21894;SDS011;11112;51.270;7.224;2023-02-01T08:21:48;21.63;;;4.35;;
21894;SDS011;11112;51.270;7.224;2023-02-01T08:24:15;26.48;;;4.78;;
21894;SDS011;11112;51.270;7.224;2023-02-01T08:26:42;22.45;;;4.78;;
21894;SDS011;11112;51.270;7.224;2023-02-01T08:29:10;26.30;;;5.20;;
21894;SDS011;11112;51.270;7.224;2023-02-01T08:31:40;29.13;;;4.97;;
21894;SDS011;11112;51.270;7.224;2023-02-01T08:34:08;29.65;;;5.95;;
21894;SDS011;11112;51.270;7.224;2023-02-01T08:36:37;28.85;;;5.43;;
21894;SDS011;11112;51.270;7.224;2023-02-01T08:39:05;27.45;;;4.38;;
21894;SDS011;11112;51.270;7.224;2023-02-01T08:41:34;29.98;;;5.30;;
21894;SDS011;11112;51.270;7.224;2023-02-01T08:44:01;30.15;;;5.15;;
21894;SDS011;11112;51.270;7.224;2023-02-01T08:46:29;29.25;;;4.97;;
21894;SDS011;11112;51.270;7.224;2023-02-01T08:48:58;22.83;;;4.97;;
21894;SDS011;11112;51.270;7.224;2023-02-01T08:51:25;29.08;;;5.60;;
21894;SDS011;11112;51.270;7.224;2023-02-01T08:53:53;30.25;;;4.95;;
21894;SDS011;11112;51.270;7.224;2023-02-01T08:56:21;23.27;;;5.38;;
21894;SDS011;11112;51.270;7.224;2023-02-01T08:58:49;27.10;;;5.20;;
21894;SDS011;11112;51.270;7.224;2023-02-01T09:01:46;23.98;;;5.28;;
21894;SDS011;11112;51.270;7.224;2023-02-01T09:05:38;25.05;;;4.90;;
21894;SDS011;11112;51.270;7.224;2023-02-01T09:09:30;27.15;;;5.07;;
21894;SDS011;11112;51.270;7.224;2023-02-01T09:12:33;25.17;;;5.28;;
21894;SDS011;11112;51.270;7.224;2023-02-01T09:15:03;27.75;;;5.13;;
21894;SDS011;11112;51.270;7.224;2023-02-01T09:17:33;28.17;;;5.00;;
21894;SDS011;11112;51.270;7.224;2023-02-01T09:20:01;30.77;;;5.40;;
21894;SDS011;11112;51.270;7.224;2023-02-01T09:22:30;24.58;;;5.30;;
21894;SDS011;11112;51.270;7.224;2023-02-01T09:24:58;26.33;;;5.25;;
21894;SDS011;11112;51.270;7.224;2023-02-01T09:27:25;29.60;;;5.43;;
21894;SDS011;11112;51.270;7.224;2023-02-01T09:29:55;28.65;;;5.38;;
21894;SDS011;11112;51.270;7.224;2023-02-01T09:32:23;25.73;;;5.05;;
21894;SDS011;11112;51.270;7.224;2023-02-01T09:34:51;33.28;;;4.95;;
21894;SDS011;11112;51.270;7.224;2023-02-01T09:37:19;25.98;;;4.50;;
21894;SDS011;11112;51.270;7.224;2023-02-01T09:39:49;30.33;;;5.32;;
21894;SDS011;11112;51.270;7.224;2023-02-01T09:42:21;27.38;;;5.28;;
21894;SDS011;11112;51.270;7.224;2023-02-01T09:45:14;25.13;;;5.22;;
21894;SDS011;11112;51.270;7.224;2023-02-01T09:47:53;28.15;;;4.97;;
21894;SDS011;11112;51.270;7.224;2023-02-01T09:50:28;27.70;;;5.32;;
21894;SDS011;11112;51.270;7.224;2023-02-01T09:53:01;24.45;;;5.10;;
21894;SDS011;11112;51.270;7.224;2023-02-01T09:55:34;22.08;;;4.70;;
21894;SDS011;11112;51.270;7.224;2023-02-01T09:58:07;29.85;;;5.78;;
21894;SDS011;11112;51.270;7.224;2023-02-01T10:00:49;27.33;;;4.88;;
21894;SDS011;11112;51.270;7.224;2023-02-01T10:03:19;29.35;;;4.93;;
21894;SDS011;11112;51.270;7.224;2023-02-01T10:06:09;23.50;;;4.80;;
21894;SDS011;11112;51.270;7.224;2023-02-01T10:09:14;26.50;;;5.20;;
21894;SDS011;11112;51.270;7.224;2023-02-01T10:15:12;24.88;;;5.07;;
21894;SDS011;11112;51.270;7.224;2023-02-01T10:17:57;26.10;;;4.85;;
21894;SDS011;11112;51.270;7.224;2023-02-01T10:20:43;20.35;;;4.22;;
21894;SDS011;11112;51.270;7.224;2023-02-01T10:23:31;22.13;;;4.50;;
21894;SDS011;11112;51.270;7.224;2023-02-01T10:26:18;24.40;;;4.53;;
21894;SDS011;11112;51.270;7.224;2023-02-01T10:28:51;23.52;;;4.78;;
21894;SDS011;11112;51.270;7.224;2023-02-01T10:31:22;24.38;;;4.95;;
21894;SDS011;11112;51.270;7.224;2023-02-01T10:33:55;24.95;;;4.68;;
21894;SDS011;11112;51.270;7.224;2023-02-01T10:36:26;25.10;;;4.95;;
21894;SDS011;11112;51.270;7.224;2023-02-01T10:38:58;29.15;;;4.82;;
21894;SDS011;11112;51.270;7.224;2023-02-01T10:41:28;25.05;;;4.50;;
21894;SDS011;11112;51.270;7.224;2023-02-01T10:44:03;24.98;;;5.00;;
21894;SDS011;11112;51.270;7.224;2023-02-01T10:46:33;24.98;;;4.82;;
21894;SDS011;11112;51.270;7.224;2023-02-01T10:49:02;28.55;;;4.60;;
21894;SDS011;11112;51.270;7.224;2023-02-01T10:51:35;24.83;;;5.05;;
21894;SDS011;11112;51.270;7.224;2023-02-01T10:54:11;25.30;;;5.30;;
21894;SDS011;11112;51.270;7.224;2023-02-01T10:56:45;18.85;;;4.20;;
21894;SDS011;11112;51.270;7.224;2023-02-01T10:59:17;24.98;;;5.90;;
21894;SDS011;11112;51.270;7.224;2023-02-01T11:01:49;22.73;;;4.45;;
21894;SDS011;11112;51.270;7.224;2023-02-01T11:04:25;22.10;;;4.45;;
21894;SDS011;11112;51.270;7.224;2023-02-01T11:06:55;27.58;;;4.90;;
21894;SDS011;11112;51.270;7.224;2023-02-01T11:09:34;26.27;;;5.22;;
21894;SDS011;11112;51.270;7.224;2023-02-01T11:12:20;25.85;;;5.18;;
21894;SDS011;11112;51.270;7.224;2023-02-01T11:14:58;23.73;;;4.53;;
21894;SDS011;11112;51.270;7.224;2023-02-01T11:17:40;22.15;;;5.13;;
21894;SDS011;11112;51.270;7.224;2023-02-01T11:20:20;24.70;;;5.07;;
21894;SDS011;11112;51.270;7.224;2023-02-01T11:23:05;20.10;;;4.95;;
21894;SDS011;11112;51.270;7.224;2023-02-01T11:25:49;25.27;;;5.55;;
21894;SDS011;11112;51.270;7.224;2023-02-01T11:28:29;24.05;;;4.82;;
21894;SDS011;11112;51.270;7.224;2023-02-01T11:31:10;27.48;;;4.63;;
21894;SDS011;11112;51.270;7.224;2023-02-01T11:33:43;25.30;;;5.43;;
21894;SDS011;11112;51.270;7.224;2023-02-01T11:36:18;24.48;;;4.80;;
21894;SDS011;11112;51.270;7.224;2023-02-01T11:38:52;23.17;;;4.93;;
21894;SDS011;11112;51.270;7.224;2023-02-01T11:41:33;23.40;;;4.45;;
21894;SDS011;11112;51.270;7.224;2023-02-01T11:44:15;27.23;;;4.30;;
21894;SDS011;11112;51.270;7.224;2023-02-01T11:46:54;26.65;;;5.20;;
21894;SDS011;11112;51.270;7.224;2023-02-01T11:49:22;23.83;;;5.00;;
21894;SDS011;11112;51.270;7.224;2023-02-01T11:51:57;17.73;;;3.92;;
21894;SDS011;11112;51.270;7.224;2023-02-01T11:54:42;25.50;;;4.45;;
21894;SDS011;11112;51.270;7.224;2023-02-01T11:57:37;21.70;;;3.90;;
21894;SDS011;11112;51.270;7.224;2023-02-01T12:03:04;24.08;;;4.20;;
21894;SDS011;11112;51.270;7.224;2023-02-01T12:06:29;17.02;;;3.85;;
21894;SDS011;11112;51.270;7.224;2023-02-01T12:09:15;18.52;;;4.03;;
21894;SDS011;11112;51.270;7.224;2023-02-01T12:11:59;22.65;;;4.35;;
21894;SDS011;11112;51.270;7.224;2023-02-01T12:14:42;23.85;;;4.35;;
21894;SDS011;11112;51.270;7.224;2023-02-01T12:17:34;25.27;;;4.63;;
21894;SDS011;11112;51.270;7.224;2023-02-01T12:23:19;23.30;;;4.55;;
21894;SDS011;11112;51.270;7.224;2023-02-01T12:26:08;24.35;;;4.32;;
21894;SDS011;11112;51.270;7.224;2023-02-01T12:29:04;17.83;;;4.05;;
21894;SDS011;11112;51.270;7.224;2023-02-01T12:31:48;22.77;;;4.43;;
21894;SDS011;11112;51.270;7.224;2023-02-01T12:34:36;21.20;;;4.53;;
21894;SDS011;11112;51.270;7.224;2023-02-01T12:37:47;23.63;;;4.68;;
21894;SDS011;11112;51.270;7.224;2023-02-01T12:40:29;19.65;;;3.92;;
21894;SDS011;11112;51.270;7.224;2023-02-01T12:43:19;18.98;;;4.22;;
21894;SDS011;11112;51.270;7.224;2023-02-01T12:46:02;20.63;;;4.00;;
21894;SDS011;11112;51.270;7.224;2023-02-01T12:48:36;21.05;;;4.65;;
21894;SDS011;11112;51.270;7.224;2023-02-01T12:51:09;25.00;;;4.65;;
21894;SDS011;11112;51.270;7.224;2023-02-01T12:53:45;22.80;;;4.43;;
21894;SDS011;11112;51.270;7.224;2023-02-01T12:56:20;32.63;;;5.00;;
21894;SDS011;11112;51.270;7.224;2023-02-01T12:58:52;25.13;;;5.10;;
21894;SDS011;11112;51.270;7.224;2023-02-01T13:01:26;22.60;;;3.88;;
21894;SDS011;11112;51.270;7.224;2023-02-01T13:04:02;24.90;;;4.50;;
21894;SDS011;11112;51.270;7.224;2023-02-01T13:06:37;21.08;;;4.45;;
21894;SDS011;11112;51.270;7.224;2023-02-01T13:09:18;23.83;;;4.68;;
21894;SDS011;11112;51.270;7.224;2023-02-01T13:11:53;23.58;;;4.70;;
21894;SDS011;11112;51.270;7.224;2023-02-01T13:14:27;24.50;;;5.00;;
21894;SDS011;11112;51.270;7.224;2023-02-01T13:17:01;19.23;;;4.30;;
21894;SDS011;11112;51.270;7.224;2023-02-01T13:19:34;21.25;;;4.00;;
21894;SDS011;11112;51.270;7.224;2023-02-01T13:22:10;19.98;;;4.57;;
21894;SDS011;11112;51.270;7.224;2023-02-01T13:24:52;18.70;;;3.92;;
21894;SDS011;11112;51.270;7.224;2023-02-01T13:27:26;21.20;;;4.55;;
21894;SDS011;11112;51.270;7.224;2023-02-01T13:29:56;18.88;;;4.70;;
21894;SDS011;11112;51.270;7.224;2023-02-01T13:32:31;20.95;;;4.18;;
21894;SDS011;11112;51.270;7.224;2023-02-01T13:35:37;27.45;;;4.97;;
21894;SDS011;11112;51.270;7.224;2023-02-01T13:41:35;24.13;;;4.50;;
21894;SDS011;11112;51.270;7.224;2023-02-01T13:44:10;22.75;;;4.68;;
21894;SDS011;11112;51.270;7.224;2023-02-01T13:47:00;23.73;;;4.88;;
21894;SDS011;11112;51.270;7.224;2023-02-01T13:49:38;19.73;;;4.40;;
21894;SDS011;11112;51.270;7.224;2023-02-01T13:52:17;22.13;;;4.65;;
21894;SDS011;11112;51.270;7.224;2023-02-01T13:55:13;18.58;;;4.35;;
21894;SDS011;11112;51.270;7.224;2023-02-01T13:58:01;21.23;;;4.30;;
21894;SDS011;11112;51.270;7.224;2023-02-01T14:00:41;19.05;;;4.13;;
21894;SDS011;11112;51.270;7.224;2023-02-01T14:03:42;26.75;;;4.32;;
21894;SDS011;11112;51.270;7.224;2023-02-01T14:06:16;23.45;;;4.43;;
21894;SDS011;11112;51.270;7.224;2023-02-01T14:09:10;26.35;;;4.30;;
21894;SDS011;11112;51.270;7.224;2023-02-01T14:11:47;24.48;;;4.70;;
21894;SDS011;11112;51.270;7.224;2023-02-01T14:23:22;21.63;;;4.05;;
21894;SDS011;11112;51.270;7.224;2023-02-01T14:26:07;23.10;;;3.88;;
21894;SDS011;11112;51.270;7.224;2023-02-01T14:28:49;20.23;;;4.25;;
21894;SDS011;11112;51.270;7.224;2023-02-01T14:31:34;22.45;;;4.78;;
21894;SDS011;11112;51.270;7.224;2023-02-01T14:34:11;23.05;;;4.15;;
21894;SDS011;11112;51.270;7.224;2023-02-01T14:36:49;18.67;;;3.50;;
21894;SDS011;11112;51.270;7.224;2023-02-01T14:39:24;18.58;;;3.65;;
21894;SDS011;11112;51.270;7.224;2023-02-01T14:42:01;21.80;;;3.53;;
21894;SDS011;11112;51.270;7.224;2023-02-01T14:44:35;21.70;;;3.92;;
21894;SDS011;11112;51.270;7.224;2023-02-01T14:47:06;17.90;;;3.53;;
21894;SDS011;11112;51.270;7.224;2023-02-01T14:53:11;20.20;;;3.55;;
21894;SDS011;11112;51.270;7.224;2023-02-01T14:55:46;15.45;;;3.13;;
21894;SDS011;11112;51.270;7.224;2023-02-01T14:58:18;16.92;;;3.70;;
21894;SDS011;11112;51.270;7.224;2023-02-01T15:00:59;15.50;;;3.13;;
21894;SDS011;11112;51.270;7.224;2023-02-01T15:03:36;19.77;;;3.38;;
21894;SDS011;11112;51.270;7.224;2023-02-01T15:06:22;20.45;;;3.40;;
21894;SDS011;11112;51.270;7.224;2023-02-01T15:08:58;21.73;;;3.60;;
21894;SDS011;11112;51.270;7.224;2023-02-01T15:11:30;17.05;;;2.63;;
21894;SDS011;11112;51.270;7.224;2023-02-01T15:13:59;21.80;;;3.33;;
21894;SDS011;11112;51.270;7.224;2023-02-01T15:16:26;20.25;;;3.38;;
21894;SDS011;11112;51.270;7.224;2023-02-01T15:19:08;16.65;;;3.17;;
21894;SDS011;11112;51.270;7.224;2023-02-01T15:21:45;21.92;;;3.58;;
21894;SDS011;11112;51.270;7.224;2023-02-01T15:24:20;21.42;;;3.78;;
21894;SDS011;11112;51.270;7.224;2023-02-01T15:26:49;23.03;;;4.00;;
21894;SDS011;11112;51.270;7.224;2023-02-01T15:29:17;23.13;;;4.45;;
21894;SDS011;11112;51.270;7.224;2023-02-01T15:31:48;16.90;;;3.35;;
21894;SDS011;11112;51.270;7.224;2023-02-01T15:34:19;19.38;;;3.40;;
21894;SDS011;11112;51.270;7.224;2023-02-01T15:36:48;19.38;;;3.47;;
21894;SDS011;11112;51.270;7.224;2023-02-01T15:39:33;21.10;;;3.50;;
21894;SDS011;11112;51.270;7.224;2023-02-01T15:42:09;16.73;;;3.03;;
21894;SDS011;11112;51.270;7.224;2023-02-01T15:44:44;22.27;;;3.50;;
21894;SDS011;11112;51.270;7.224;2023-02-01T15:47:14;19.90;;;3.40;;
21894;SDS011;11112;51.270;7.224;2023-02-01T15:49:47;22.77;;;3.80;;
21894;SDS011;11112;51.270;7.224;2023-02-01T15:52:24;24.13;;;3.53;;